Briefing drone pour Nevers (LFQG)

Rechercher une autre localisation

Conditions de vol :


Nous sommes le : Samedi 06 mars 2021
Il est 13:48 UTC (14:48 LT)

Lever de soleil : 05:50 UTC (06:50 LT)
Coucher de soleil : 18:06 UTC (19:06 LT)

Météo

L'essentiel des conditions de vol

VIGILANCE MÉTÉO FRANCE - Nièvre (58)
Pas de vigilances particulieres
CARTES DES FRONTS
METAR de LFQG
LFQG 061330Z AUTO 07005KT 030V120 CAVOK 10/01 Q1025

Date d'émission: 06/03/2021
Heure d'émission: 13:30 UTC
Vent: 070° (variable du 030° au 120°) pour 5 KT (9 km/h)
Visibilité horizontale: > 10 km
Plafond : Plafond et visibilité OK (CAVOK)
Température: 10 °C
Point de rosée: 1 °C
Humidité: 54%
Pression (QNH): 1025 hPa
Prévision 24h pour Nevers
Vent : 129° pour 1 KT (2 km/h)
Temperature Maxi: 6 °C
Temperature Min: 6 °C
Humidité : 78%
Condition : Partiellement nuageux


WEBCAM POUR NEVERS

Réglementation

Voler en sécurité

CARTES AERONAUTIQUE 1/500.000
CARTES VAC (LFQG)
SUP AIP




Chargement des AIP...
NOTAM (NEVERS + Terrain à proximité / FIR )




Chargement des NOTAMS...
CONTACT PREFECTURE 58


Avertissement : Les données mises à disposition sont indicatives. Oxygène Drone ne pourra être tenu responsable de dégâts causés aux biens et aux personnes.